createdAt,value
2023-02-20T00:09:58.324Z,2.9
2023-02-20T00:19:58.312Z,2.8
2023-02-20T00:29:58.267Z,2.8
2023-02-20T00:39:58.247Z,2.6
2023-02-20T00:49:58.226Z,2.5
2023-02-20T00:59:58.225Z,2.5
2023-02-20T01:09:58.163Z,2.4
2023-02-20T01:19:58.153Z,2.5
2023-02-20T01:29:58.124Z,2.8
2023-02-20T01:39:58.110Z,2.9
2023-02-20T01:49:58.100Z,3
2023-02-20T01:59:58.080Z,3.2
2023-02-20T02:09:58.032Z,3.4
2023-02-20T02:19:57.993Z,3.6
2023-02-20T02:29:57.982Z,3.7
2023-02-20T02:39:58.234Z,3.8
2023-02-20T02:49:57.935Z,3.9
2023-02-20T02:59:57.889Z,3.7
2023-02-20T03:09:57.869Z,3.7
2023-02-20T03:19:57.841Z,3.5
2023-02-20T03:29:57.835Z,3.4
2023-02-20T03:39:57.800Z,3.2
2023-02-20T03:49:57.800Z,3
2023-02-20T03:59:57.794Z,2.9
2023-02-20T04:09:57.745Z,2.9
2023-02-20T04:19:57.765Z,2.9
2023-02-20T04:29:57.677Z,3.2
2023-02-20T04:39:57.651Z,3.3
2023-02-20T04:49:57.634Z,3.3
2023-02-20T04:59:57.610Z,3.2
2023-02-20T05:09:57.581Z,3.1
2023-02-20T05:19:57.557Z,3.1
2023-02-20T05:29:57.529Z,3.2
2023-02-20T05:39:57.562Z,3
2023-02-20T05:49:57.477Z,2.7
2023-02-20T05:59:57.484Z,2.6
2023-02-20T06:09:57.449Z,2.7
2023-02-20T06:19:57.417Z,2.7
2023-02-20T06:29:57.385Z,2.7
2023-02-20T06:39:57.378Z,2.7
2023-02-20T06:49:57.356Z,2.5
2023-02-20T06:59:57.319Z,2.4
2023-02-20T07:09:57.296Z,2.3
2023-02-20T07:19:57.282Z,2.3
2023-02-20T07:29:57.303Z,2.4
2023-02-20T07:39:57.231Z,2.6
2023-02-20T07:49:57.189Z,2.7
2023-02-20T07:59:57.197Z,3.2
2023-02-20T08:09:57.188Z,3.5
2023-02-20T08:19:57.132Z,4.1
2023-02-20T08:29:57.097Z,4.7
2023-02-20T08:39:57.148Z,5.1
2023-02-20T08:49:57.038Z,5.4
2023-02-20T08:59:57.027Z,5.6
2023-02-20T09:09:57.001Z,5.9
2023-02-20T09:19:56.966Z,6
2023-02-20T09:29:56.995Z,6
2023-02-20T09:39:56.956Z,6
2023-02-20T09:49:56.878Z,6.2
2023-02-20T09:59:56.857Z,6.3
2023-02-20T10:09:56.846Z,6.4
2023-02-20T10:19:56.818Z,6.4
2023-02-20T10:29:56.790Z,6.6
2023-02-20T10:39:56.764Z,6.8
2023-02-20T10:49:56.722Z,7
2023-02-20T10:59:56.701Z,7.1
2023-02-20T11:09:56.684Z,7.3
2023-02-20T11:19:56.822Z,7.5
2023-02-20T11:29:56.623Z,7.7
2023-02-20T11:39:56.606Z,8
2023-02-20T11:49:56.572Z,8.2
2023-02-20T11:59:56.522Z,8.3
2023-02-20T12:09:56.495Z,8.6
2023-02-20T12:19:56.474Z,8.8
2023-02-20T12:29:56.448Z,9.1
2023-02-20T12:39:56.478Z,9.5
2023-02-20T12:49:56.381Z,9.6
2023-02-20T12:59:56.350Z,10.1
2023-02-20T13:09:56.343Z,9.8
2023-02-20T13:19:56.282Z,9.7
2023-02-20T13:29:56.264Z,9.4
2023-02-20T13:39:56.265Z,9.3
2023-02-20T13:49:56.225Z,9.4
2023-02-20T13:59:56.172Z,9.1
2023-02-20T14:09:56.139Z,9.1
2023-02-20T14:19:56.221Z,9.3
2023-02-20T14:29:56.188Z,9.4
2023-02-20T14:39:56.065Z,9.4
2023-02-20T14:49:56.031Z,9.6
2023-02-20T14:59:56.040Z,9.6
2023-02-20T15:09:55.971Z,9.6
2023-02-20T15:19:55.941Z,9.6
2023-02-20T15:29:55.914Z,9.3
2023-02-20T15:39:55.890Z,9.4
2023-02-20T15:49:55.860Z,8.9
2023-02-20T15:59:55.913Z,8.8
2023-02-20T16:09:55.804Z,8.7
2023-02-20T16:19:55.773Z,8.5
2023-02-20T16:29:55.734Z,8.4
2023-02-20T16:39:55.737Z,8.3
2023-02-20T16:49:55.693Z,8.2
2023-02-20T16:59:55.668Z,8.1
2023-02-20T17:09:55.620Z,8
2023-02-20T17:19:55.606Z,7.9
2023-02-20T17:29:55.577Z,7.8
2023-02-20T17:39:55.549Z,7.8
2023-02-20T17:49:55.517Z,7.7
2023-02-20T17:59:55.480Z,7.6
2023-02-20T18:09:55.465Z,7.6
2023-02-20T18:19:55.425Z,7.6
2023-02-20T18:29:55.398Z,7.6
2023-02-20T18:39:55.370Z,7.6
2023-02-20T18:49:55.367Z,7.6
2023-02-20T18:59:55.301Z,7.6
2023-02-20T19:09:55.294Z,7.6
2023-02-20T19:19:55.491Z,7.6
2023-02-20T19:29:55.275Z,7.7
2023-02-20T19:39:55.247Z,7.7
2023-02-20T19:49:55.172Z,7.6
2023-02-20T19:59:55.161Z,7.6
2023-02-20T20:09:55.142Z,7.6
2023-02-20T20:19:55.121Z,7.7
2023-02-20T20:29:55.079Z,7.7
2023-02-20T20:39:55.048Z,7.7
2023-02-20T20:49:55.089Z,7.8
2023-02-20T20:59:55.053Z,7.8
2023-02-20T21:09:54.971Z,7.8
2023-02-20T21:19:54.967Z,7.8
2023-02-20T21:29:55.012Z,7.8
2023-02-20T21:39:54.868Z,7.8
2023-02-20T21:49:54.847Z,7.8
2023-02-20T21:59:54.820Z,7.8
2023-02-20T22:09:54.813Z,7.8
2023-02-20T22:19:54.780Z,7.8
2023-02-20T22:29:54.736Z,7.8
2023-02-20T22:39:54.702Z,7.8
2023-02-20T22:49:54.672Z,7.7
2023-02-20T22:59:54.661Z,7.7
2023-02-20T23:09:54.634Z,7.7
2023-02-20T23:19:54.598Z,7.6
2023-02-20T23:29:54.585Z,7.6
2023-02-20T23:39:54.549Z,7.6
2023-02-20T23:49:54.513Z,7.6
2023-02-20T23:59:54.471Z,7.4
